Terminal Aerodrome Forecast
Issued by NWS

Home | Current Version | Previous Version | Text Only | Print | Product List | Glossary On
Versions: 1 2 3 4 5 6 7 8 9 10 11 12 13 14 15 16 17 18 19 20 21 22 23
000
FTUS45 KBOU 261129
TAFBJC
TAF
KBJC 261129Z 2612/2712 34006KT P6SM SKC
     FM261500 34006KT P6SM FEW150 SCT200
     FM261900 02007KT P6SM FEW090 SCT150
     FM270100 24010KT P6SM SCT080 BKN140
     FM270500 29012KT P6SM FEW100 SCT150=

USA.gov is the U.S. government's official web portal to all federal, state and local government web resources and services.